sensor_id;sensor_type;location;lat;lon;timestamp;temperature;humidity
74513;DHT22;62992;52.052;8.550;2022-08-19T00:00:10;18.90;99.90
74513;DHT22;62992;52.052;8.550;2022-08-19T00:02:40;18.80;99.90
74513;DHT22;62992;52.052;8.550;2022-08-19T00:05:06;18.80;99.90
74513;DHT22;62992;52.052;8.550;2022-08-19T00:07:31;18.80;99.90
74513;DHT22;62992;52.052;8.550;2022-08-19T00:09:57;18.70;99.90
74513;DHT22;62992;52.052;8.550;2022-08-19T00:12:23;18.70;99.90
74513;DHT22;62992;52.052;8.550;2022-08-19T00:14:48;18.70;99.90
74513;DHT22;62992;52.052;8.550;2022-08-19T00:17:14;18.60;99.90
74513;DHT22;62992;52.052;8.550;2022-08-19T00:19:40;18.60;99.90
74513;DHT22;62992;52.052;8.550;2022-08-19T00:22:06;18.60;99.90
74513;DHT22;62992;52.052;8.550;2022-08-19T00:24:33;18.60;99.90
74513;DHT22;62992;52.052;8.550;2022-08-19T00:27:00;18.50;99.90
74513;DHT22;62992;52.052;8.550;2022-08-19T00:29:27;18.50;99.90
74513;DHT22;62992;52.052;8.550;2022-08-19T00:31:54;18.50;99.90
74513;DHT22;62992;52.052;8.550;2022-08-19T00:34:20;18.50;99.90
74513;DHT22;62992;52.052;8.550;2022-08-19T00:36:48;18.50;99.90
74513;DHT22;62992;52.052;8.550;2022-08-19T00:39:15;18.40;99.90
74513;DHT22;62992;52.052;8.550;2022-08-19T00:41:42;18.40;99.90
74513;DHT22;62992;52.052;8.550;2022-08-19T00:44:34;18.40;99.90
74513;DHT22;62992;52.052;8.550;2022-08-19T00:47:00;18.40;99.90
74513;DHT22;62992;52.052;8.550;2022-08-19T00:52:26;18.40;99.90
74513;DHT22;62992;52.052;8.550;2022-08-19T00:54:55;18.40;99.90
74513;DHT22;62992;52.052;8.550;2022-08-19T00:57:26;18.40;99.90
74513;DHT22;62992;52.052;8.550;2022-08-19T00:59:54;18.40;99.90
74513;DHT22;62992;52.052;8.550;2022-08-19T01:02:21;18.30;99.90
74513;DHT22;62992;52.052;8.550;2022-08-19T01:04:46;18.30;99.90
74513;DHT22;62992;52.052;8.550;2022-08-19T01:07:12;18.30;99.90
74513;DHT22;62992;52.052;8.550;2022-08-19T01:09:38;18.20;99.90
74513;DHT22;62992;52.052;8.550;2022-08-19T01:12:04;18.20;99.90
74513;DHT22;62992;52.052;8.550;2022-08-19T01:14:30;18.20;99.90
74513;DHT22;62992;52.052;8.550;2022-08-19T01:16:56;18.20;99.90
74513;DHT22;62992;52.052;8.550;2022-08-19T01:21:54;18.10;99.90
74513;DHT22;62992;52.052;8.550;2022-08-19T01:24:21;18.10;99.90
74513;DHT22;62992;52.052;8.550;2022-08-19T01:26:47;18.10;99.90
74513;DHT22;62992;52.052;8.550;2022-08-19T01:29:13;18.00;99.90
74513;DHT22;62992;52.052;8.550;2022-08-19T01:31:39;18.00;99.90
74513;DHT22;62992;52.052;8.550;2022-08-19T01:34:06;18.00;99.90
74513;DHT22;62992;52.052;8.550;2022-08-19T01:36:39;18.00;99.90
74513;DHT22;62992;52.052;8.550;2022-08-19T01:39:10;18.00;99.90
74513;DHT22;62992;52.052;8.550;2022-08-19T01:41:36;18.00;99.90
74513;DHT22;62992;52.052;8.550;2022-08-19T01:44:03;18.00;99.90
74513;DHT22;62992;52.052;8.550;2022-08-19T01:46:30;17.90;99.90
74513;DHT22;62992;52.052;8.550;2022-08-19T01:48:56;17.90;99.90
74513;DHT22;62992;52.052;8.550;2022-08-19T01:51:22;17.90;99.90
74513;DHT22;62992;52.052;8.550;2022-08-19T01:53:49;17.90;99.90
74513;DHT22;62992;52.052;8.550;2022-08-19T01:56:15;17.80;99.90
74513;DHT22;62992;52.052;8.550;2022-08-19T01:58:45;17.80;99.90
74513;DHT22;62992;52.052;8.550;2022-08-19T02:01:12;17.90;99.90
74513;DHT22;62992;52.052;8.550;2022-08-19T02:03:39;17.90;99.90
74513;DHT22;62992;52.052;8.550;2022-08-19T02:06:05;17.80;99.90
74513;DHT22;62992;52.052;8.550;2022-08-19T02:08:32;17.80;99.90
74513;DHT22;62992;52.052;8.550;2022-08-19T02:10:58;17.70;99.90
74513;DHT22;62992;52.052;8.550;2022-08-19T02:13:25;17.80;99.90
74513;DHT22;62992;52.052;8.550;2022-08-19T02:15:51;17.90;99.90
74513;DHT22;62992;52.052;8.550;2022-08-19T02:18:17;17.90;99.90
74513;DHT22;62992;52.052;8.550;2022-08-19T02:20:43;17.90;99.90
74513;DHT22;62992;52.052;8.550;2022-08-19T02:23:11;17.80;99.90
74513;DHT22;62992;52.052;8.550;2022-08-19T02:25:37;17.80;99.90
74513;DHT22;62992;52.052;8.550;2022-08-19T02:28:03;17.70;99.90
74513;DHT22;62992;52.052;8.550;2022-08-19T02:30:29;17.70;99.90
74513;DHT22;62992;52.052;8.550;2022-08-19T02:32:55;17.60;99.90
74513;DHT22;62992;52.052;8.550;2022-08-19T02:35:21;17.60;99.90
74513;DHT22;62992;52.052;8.550;2022-08-19T02:37:47;17.50;99.90
74513;DHT22;62992;52.052;8.550;2022-08-19T02:40:32;17.50;99.90
74513;DHT22;62992;52.052;8.550;2022-08-19T02:43:05;17.50;99.90
74513;DHT22;62992;52.052;8.550;2022-08-19T02:45:34;17.50;99.90
74513;DHT22;62992;52.052;8.550;2022-08-19T02:48:00;17.60;99.90
74513;DHT22;62992;52.052;8.550;2022-08-19T02:50:25;17.50;99.90
74513;DHT22;62992;52.052;8.550;2022-08-19T02:52:51;17.60;99.90
74513;DHT22;62992;52.052;8.550;2022-08-19T02:55:17;17.70;99.90
74513;DHT22;62992;52.052;8.550;2022-08-19T02:57:42;17.60;99.90
74513;DHT22;62992;52.052;8.550;2022-08-19T03:00:09;17.50;99.90
74513;DHT22;62992;52.052;8.550;2022-08-19T03:02:38;17.60;99.90
74513;DHT22;62992;52.052;8.550;2022-08-19T03:05:04;17.50;99.90
74513;DHT22;62992;52.052;8.550;2022-08-19T03:07:30;17.50;99.90
74513;DHT22;62992;52.052;8.550;2022-08-19T03:09:56;17.50;99.90
74513;DHT22;62992;52.052;8.550;2022-08-19T03:12:21;17.50;99.90
74513;DHT22;62992;52.052;8.550;2022-08-19T03:14:47;17.40;99.90
74513;DHT22;62992;52.052;8.550;2022-08-19T03:17:13;17.40;99.90
74513;DHT22;62992;52.052;8.550;2022-08-19T03:19:38;17.30;99.90
74513;DHT22;62992;52.052;8.550;2022-08-19T03:22:04;17.30;99.90
74513;DHT22;62992;52.052;8.550;2022-08-19T03:24:30;17.30;99.90
74513;DHT22;62992;52.052;8.550;2022-08-19T03:26:57;17.30;99.90
74513;DHT22;62992;52.052;8.550;2022-08-19T03:29:25;17.30;99.90
74513;DHT22;62992;52.052;8.550;2022-08-19T03:31:51;17.20;99.90
74513;DHT22;62992;52.052;8.550;2022-08-19T03:34:23;17.10;99.90
74513;DHT22;62992;52.052;8.550;2022-08-19T03:36:57;17.10;99.90
74513;DHT22;62992;52.052;8.550;2022-08-19T03:39:24;17.10;99.90
74513;DHT22;62992;52.052;8.550;2022-08-19T03:41:51;17.10;99.90
74513;DHT22;62992;52.052;8.550;2022-08-19T03:44:20;17.10;99.90
74513;DHT22;62992;52.052;8.550;2022-08-19T03:46:58;17.10;99.90
74513;DHT22;62992;52.052;8.550;2022-08-19T03:49:26;17.10;99.90
74513;DHT22;62992;52.052;8.550;2022-08-19T03:51:54;17.10;99.90
74513;DHT22;62992;52.052;8.550;2022-08-19T03:54:22;17.10;99.90
74513;DHT22;62992;52.052;8.550;2022-08-19T03:56:50;17.10;99.90
74513;DHT22;62992;52.052;8.550;2022-08-19T03:59:28;17.10;99.90
74513;DHT22;62992;52.052;8.550;2022-08-19T04:01:56;17.10;99.90
74513;DHT22;62992;52.052;8.550;2022-08-19T04:04:22;17.20;99.90
74513;DHT22;62992;52.052;8.550;2022-08-19T04:06:48;17.20;99.90
74513;DHT22;62992;52.052;8.550;2022-08-19T04:09:14;17.30;99.90
74513;DHT22;62992;52.052;8.550;2022-08-19T04:11:45;17.30;99.90
74513;DHT22;62992;52.052;8.550;2022-08-19T04:14:14;17.20;99.90
74513;DHT22;62992;52.052;8.550;2022-08-19T04:16:40;17.10;99.90
74513;DHT22;62992;52.052;8.550;2022-08-19T04:19:06;17.10;99.90
74513;DHT22;62992;52.052;8.550;2022-08-19T04:21:32;17.10;99.90
74513;DHT22;62992;52.052;8.550;2022-08-19T04:23:59;17.10;99.90
74513;DHT22;62992;52.052;8.550;2022-08-19T04:26:27;17.20;99.90
74513;DHT22;62992;52.052;8.550;2022-08-19T04:28:54;17.10;99.90
74513;DHT22;62992;52.052;8.550;2022-08-19T04:31:26;17.10;99.90
74513;DHT22;62992;52.052;8.550;2022-08-19T04:33:53;17.10;99.90
74513;DHT22;62992;52.052;8.550;2022-08-19T04:36:31;17.10;99.90
74513;DHT22;62992;52.052;8.550;2022-08-19T04:39:00;17.10;99.90
74513;DHT22;62992;52.052;8.550;2022-08-19T04:41:26;17.10;99.90
74513;DHT22;62992;52.052;8.550;2022-08-19T04:44:11;17.10;99.90
74513;DHT22;62992;52.052;8.550;2022-08-19T04:46:36;17.30;99.90
74513;DHT22;62992;52.052;8.550;2022-08-19T04:49:04;17.20;99.90
74513;DHT22;62992;52.052;8.550;2022-08-19T04:51:32;17.10;99.90
74513;DHT22;62992;52.052;8.550;2022-08-19T04:53:58;17.10;99.90
74513;DHT22;62992;52.052;8.550;2022-08-19T04:56:25;17.00;99.90
74513;DHT22;62992;52.052;8.550;2022-08-19T04:58:53;17.00;99.90
74513;DHT22;62992;52.052;8.550;2022-08-19T05:01:22;17.10;99.90
74513;DHT22;62992;52.052;8.550;2022-08-19T05:03:48;17.10;99.90
74513;DHT22;62992;52.052;8.550;2022-08-19T05:06:16;17.20;99.90
74513;DHT22;62992;52.052;8.550;2022-08-19T05:08:44;17.20;99.90
74513;DHT22;62992;52.052;8.550;2022-08-19T05:11:18;17.30;99.90
74513;DHT22;62992;52.052;8.550;2022-08-19T05:13:45;17.40;99.90
74513;DHT22;62992;52.052;8.550;2022-08-19T05:16:12;17.40;99.90
74513;DHT22;62992;52.052;8.550;2022-08-19T05:18:39;17.50;99.90
74513;DHT22;62992;52.052;8.550;2022-08-19T05:21:24;17.50;99.90
74513;DHT22;62992;52.052;8.550;2022-08-19T05:24:09;17.50;99.90
74513;DHT22;62992;52.052;8.550;2022-08-19T05:26:36;17.50;99.90
74513;DHT22;62992;52.052;8.550;2022-08-19T05:29:03;17.50;99.90
74513;DHT22;62992;52.052;8.550;2022-08-19T05:31:29;17.40;99.90
74513;DHT22;62992;52.052;8.550;2022-08-19T05:33:55;17.40;99.90
74513;DHT22;62992;52.052;8.550;2022-08-19T05:36:21;17.50;99.90
74513;DHT22;62992;52.052;8.550;2022-08-19T05:38:47;17.50;99.90
74513;DHT22;62992;52.052;8.550;2022-08-19T05:41:14;17.50;99.90
74513;DHT22;62992;52.052;8.550;2022-08-19T05:43:40;17.60;99.90
74513;DHT22;62992;52.052;8.550;2022-08-19T05:46:07;17.70;99.90
74513;DHT22;62992;52.052;8.550;2022-08-19T05:48:34;17.80;99.90
74513;DHT22;62992;52.052;8.550;2022-08-19T05:51:07;17.90;99.90
74513;DHT22;62992;52.052;8.550;2022-08-19T05:53:34;18.10;99.90
74513;DHT22;62992;52.052;8.550;2022-08-19T05:56:07;18.40;99.90
74513;DHT22;62992;52.052;8.550;2022-08-19T05:58:33;18.30;99.90
74513;DHT22;62992;52.052;8.550;2022-08-19T06:00:59;18.20;99.90
74513;DHT22;62992;52.052;8.550;2022-08-19T06:03:30;18.40;99.90
74513;DHT22;62992;52.052;8.550;2022-08-19T06:05:56;19.00;99.90
74513;DHT22;62992;52.052;8.550;2022-08-19T06:08:23;19.80;99.90
74513;DHT22;62992;52.052;8.550;2022-08-19T06:10:49;20.50;99.90
74513;DHT22;62992;52.052;8.550;2022-08-19T06:13:15;20.90;99.90
74513;DHT22;62992;52.052;8.550;2022-08-19T06:15:40;21.00;99.90
74513;DHT22;62992;52.052;8.550;2022-08-19T06:18:09;21.40;99.90
74513;DHT22;62992;52.052;8.550;2022-08-19T06:20:35;22.40;99.90
74513;DHT22;62992;52.052;8.550;2022-08-19T06:23:00;22.30;99.90
74513;DHT22;62992;52.052;8.550;2022-08-19T06:25:26;23.20;99.90
74513;DHT22;62992;52.052;8.550;2022-08-19T06:27:52;24.10;99.90
74513;DHT22;62992;52.052;8.550;2022-08-19T06:30:18;23.50;99.90
74513;DHT22;62992;52.052;8.550;2022-08-19T06:32:43;23.40;99.90
74513;DHT22;62992;52.052;8.550;2022-08-19T06:35:09;23.90;99.90
74513;DHT22;62992;52.052;8.550;2022-08-19T06:37:36;24.60;99.90
74513;DHT22;62992;52.052;8.550;2022-08-19T06:40:02;24.20;99.90
74513;DHT22;62992;52.052;8.550;2022-08-19T06:42:28;23.30;99.90
74513;DHT22;62992;52.052;8.550;2022-08-19T06:44:54;22.20;99.90
74513;DHT22;62992;52.052;8.550;2022-08-19T06:47:21;21.50;99.90
74513;DHT22;62992;52.052;8.550;2022-08-19T06:49:46;20.90;99.90
74513;DHT22;62992;52.052;8.550;2022-08-19T06:52:12;20.70;99.90
74513;DHT22;62992;52.052;8.550;2022-08-19T06:54:39;20.50;99.90
74513;DHT22;62992;52.052;8.550;2022-08-19T06:57:05;20.40;99.90
74513;DHT22;62992;52.052;8.550;2022-08-19T06:59:32;20.40;99.90
74513;DHT22;62992;52.052;8.550;2022-08-19T07:02:01;20.40;99.90
74513;DHT22;62992;52.052;8.550;2022-08-19T07:04:30;20.40;99.90
74513;DHT22;62992;52.052;8.550;2022-08-19T07:07:03;20.50;99.90
74513;DHT22;62992;52.052;8.550;2022-08-19T07:09:31;20.60;99.90
74513;DHT22;62992;52.052;8.550;2022-08-19T07:11:57;20.70;99.90
74513;DHT22;62992;52.052;8.550;2022-08-19T07:14:26;20.80;99.90
74513;DHT22;62992;52.052;8.550;2022-08-19T07:16:54;20.80;99.90
74513;DHT22;62992;52.052;8.550;2022-08-19T07:19:22;20.90;99.90
74513;DHT22;62992;52.052;8.550;2022-08-19T07:21:49;21.00;99.90
74513;DHT22;62992;52.052;8.550;2022-08-19T07:24:18;21.20;99.90
74513;DHT22;62992;52.052;8.550;2022-08-19T07:26:45;22.20;99.90
74513;DHT22;62992;52.052;8.550;2022-08-19T07:29:11;24.50;99.90
74513;DHT22;62992;52.052;8.550;2022-08-19T07:31:38;26.20;99.90
74513;DHT22;62992;52.052;8.550;2022-08-19T07:34:09;27.50;99.90
74513;DHT22;62992;52.052;8.550;2022-08-19T07:36:38;28.90;99.90
74513;DHT22;62992;52.052;8.550;2022-08-19T07:39:13;29.60;99.90
74513;DHT22;62992;52.052;8.550;2022-08-19T07:41:39;30.00;99.30
74513;DHT22;62992;52.052;8.550;2022-08-19T07:44:05;30.40;98.80
74513;DHT22;62992;52.052;8.550;2022-08-19T07:46:34;30.30;97.80
74513;DHT22;62992;52.052;8.550;2022-08-19T07:49:01;30.70;96.80
74513;DHT22;62992;52.052;8.550;2022-08-19T07:51:28;31.00;97.10
74513;DHT22;62992;52.052;8.550;2022-08-19T07:53:54;30.60;95.80
74513;DHT22;62992;52.052;8.550;2022-08-19T07:56:21;30.90;96.00
74513;DHT22;62992;52.052;8.550;2022-08-19T07:58:49;30.80;95.50
74513;DHT22;62992;52.052;8.550;2022-08-19T08:01:19;30.80;95.80
74513;DHT22;62992;52.052;8.550;2022-08-19T08:03:47;30.30;96.70
74513;DHT22;62992;52.052;8.550;2022-08-19T08:06:32;29.70;97.20
74513;DHT22;62992;52.052;8.550;2022-08-19T08:09:20;29.30;97.90
74513;DHT22;62992;52.052;8.550;2022-08-19T08:14:27;30.40;96.60
74513;DHT22;62992;52.052;8.550;2022-08-19T08:16:53;31.40;95.80
74513;DHT22;62992;52.052;8.550;2022-08-19T08:19:20;30.10;96.00
74513;DHT22;62992;52.052;8.550;2022-08-19T08:21:48;30.40;95.90
74513;DHT22;62992;52.052;8.550;2022-08-19T08:24:13;29.20;96.80
74513;DHT22;62992;52.052;8.550;2022-08-19T08:26:39;28.70;99.00
74513;DHT22;62992;52.052;8.550;2022-08-19T08:29:06;29.10;98.00
74513;DHT22;62992;52.052;8.550;2022-08-19T08:31:35;28.20;99.50
74513;DHT22;62992;52.052;8.550;2022-08-19T08:34:01;27.10;99.90
74513;DHT22;62992;52.052;8.550;2022-08-19T08:36:27;27.70;99.90
74513;DHT22;62992;52.052;8.550;2022-08-19T08:38:52;29.00;98.50
74513;DHT22;62992;52.052;8.550;2022-08-19T08:41:22;29.30;97.80
74513;DHT22;62992;52.052;8.550;2022-08-19T08:43:54;29.20;97.90
74513;DHT22;62992;52.052;8.550;2022-08-19T08:46:39;28.70;97.80
74513;DHT22;62992;52.052;8.550;2022-08-19T08:51:51;30.30;96.00
74513;DHT22;62992;52.052;8.550;2022-08-19T08:54:20;31.10;95.70
74513;DHT22;62992;52.052;8.550;2022-08-19T08:56:47;31.20;94.70
74513;DHT22;62992;52.052;8.550;2022-08-19T08:59:31;31.00;93.70
74513;DHT22;62992;52.052;8.550;2022-08-19T09:01:59;29.20;97.20
74513;DHT22;62992;52.052;8.550;2022-08-19T09:04:25;28.50;98.40
74513;DHT22;62992;52.052;8.550;2022-08-19T09:09:46;28.00;98.60
74513;DHT22;62992;52.052;8.550;2022-08-19T09:15:07;27.40;99.20
74513;DHT22;62992;52.052;8.550;2022-08-19T09:17:34;27.60;99.70
74513;DHT22;62992;52.052;8.550;2022-08-19T09:22:35;27.80;98.90
74513;DHT22;62992;52.052;8.550;2022-08-19T09:25:02;26.70;99.70
74513;DHT22;62992;52.052;8.550;2022-08-19T09:27:29;26.70;99.60
74513;DHT22;62992;52.052;8.550;2022-08-19T09:29:55;27.30;99.90
74513;DHT22;62992;52.052;8.550;2022-08-19T09:32:22;28.00;98.20
74513;DHT22;62992;52.052;8.550;2022-08-19T09:34:47;29.30;97.20
74513;DHT22;62992;52.052;8.550;2022-08-19T09:37:13;29.50;96.20
74513;DHT22;62992;52.052;8.550;2022-08-19T09:39:40;29.70;96.90
74513;DHT22;62992;52.052;8.550;2022-08-19T09:42:07;29.50;96.00
74513;DHT22;62992;52.052;8.550;2022-08-19T09:44:38;29.60;95.20
74513;DHT22;62992;52.052;8.550;2022-08-19T09:47:04;28.80;95.60
74513;DHT22;62992;52.052;8.550;2022-08-19T09:49:30;29.00;95.50
74513;DHT22;62992;52.052;8.550;2022-08-19T09:51:56;30.10;94.70
74513;DHT22;62992;52.052;8.550;2022-08-19T09:54:23;30.60;96.10
74513;DHT22;62992;52.052;8.550;2022-08-19T09:56:49;30.20;95.20
74513;DHT22;62992;52.052;8.550;2022-08-19T09:59:15;29.70;95.40
74513;DHT22;62992;52.052;8.550;2022-08-19T10:01:41;29.20;95.40
74513;DHT22;62992;52.052;8.550;2022-08-19T10:04:07;28.00;97.50
74513;DHT22;62992;52.052;8.550;2022-08-19T10:06:38;27.10;98.60
74513;DHT22;62992;52.052;8.550;2022-08-19T10:09:05;26.60;99.60
74513;DHT22;62992;52.052;8.550;2022-08-19T10:11:34;27.80;97.70
74513;DHT22;62992;52.052;8.550;2022-08-19T10:14:03;28.50;97.80
74513;DHT22;62992;52.052;8.550;2022-08-19T10:16:31;27.60;98.50
74513;DHT22;62992;52.052;8.550;2022-08-19T10:18:58;28.80;97.30
74513;DHT22;62992;52.052;8.550;2022-08-19T10:21:31;29.40;96.20
74513;DHT22;62992;52.052;8.550;2022-08-19T10:24:00;29.10;95.70
74513;DHT22;62992;52.052;8.550;2022-08-19T10:26:30;28.00;97.50
74513;DHT22;62992;52.052;8.550;2022-08-19T10:28:57;28.80;96.60
74513;DHT22;62992;52.052;8.550;2022-08-19T10:31:31;28.60;96.30
74513;DHT22;62992;52.052;8.550;2022-08-19T10:33:57;29.50;92.60
74513;DHT22;62992;52.052;8.550;2022-08-19T10:36:29;29.80;91.90
74513;DHT22;62992;52.052;8.550;2022-08-19T10:38:57;29.70;91.80
74513;DHT22;62992;52.052;8.550;2022-08-19T10:41:26;30.10;91.20
74513;DHT22;62992;52.052;8.550;2022-08-19T10:43:55;30.40;91.40
74513;DHT22;62992;52.052;8.550;2022-08-19T10:46:23;30.20;91.80
74513;DHT22;62992;52.052;8.550;2022-08-19T10:48:50;30.00;92.20
74513;DHT22;62992;52.052;8.550;2022-08-19T10:51:16;29.90;92.90
74513;DHT22;62992;52.052;8.550;2022-08-19T10:54:01;29.60;92.70
74513;DHT22;62992;52.052;8.550;2022-08-19T10:56:27;29.00;93.70
74513;DHT22;62992;52.052;8.550;2022-08-19T10:59:13;29.70;93.90
74513;DHT22;62992;52.052;8.550;2022-08-19T11:01:40;30.10;93.50
74513;DHT22;62992;52.052;8.550;2022-08-19T11:04:06;30.10;93.80
74513;DHT22;62992;52.052;8.550;2022-08-19T11:06:35;30.70;92.80
74513;DHT22;62992;52.052;8.550;2022-08-19T11:09:02;30.30;92.00
74513;DHT22;62992;52.052;8.550;2022-08-19T11:11:29;29.90;92.80
74513;DHT22;62992;52.052;8.550;2022-08-19T11:13:54;30.30;92.60
74513;DHT22;62992;52.052;8.550;2022-08-19T11:16:22;29.80;91.60
74513;DHT22;62992;52.052;8.550;2022-08-19T11:18:54;29.40;93.20
74513;DHT22;62992;52.052;8.550;2022-08-19T11:21:21;29.30;93.00
74513;DHT22;62992;52.052;8.550;2022-08-19T11:23:50;28.50;94.30
74513;DHT22;62992;52.052;8.550;2022-08-19T11:26:17;28.70;93.70
74513;DHT22;62992;52.052;8.550;2022-08-19T11:28:43;29.10;93.50
74513;DHT22;62992;52.052;8.550;2022-08-19T11:31:14;28.50;93.90
74513;DHT22;62992;52.052;8.550;2022-08-19T11:33:41;29.10;92.70
74513;DHT22;62992;52.052;8.550;2022-08-19T11:36:07;29.50;92.90
74513;DHT22;62992;52.052;8.550;2022-08-19T11:38:33;29.40;93.00
74513;DHT22;62992;52.052;8.550;2022-08-19T11:41:02;29.60;92.20
74513;DHT22;62992;52.052;8.550;2022-08-19T11:43:28;29.80;93.20
74513;DHT22;62992;52.052;8.550;2022-08-19T11:45:54;29.90;93.00
74513;DHT22;62992;52.052;8.550;2022-08-19T11:48:20;29.80;91.30
74513;DHT22;62992;52.052;8.550;2022-08-19T11:50:48;30.00;92.40
74513;DHT22;62992;52.052;8.550;2022-08-19T11:53:13;30.10;92.40
74513;DHT22;62992;52.052;8.550;2022-08-19T11:55:39;30.00;91.90
74513;DHT22;62992;52.052;8.550;2022-08-19T11:58:06;29.90;92.60
74513;DHT22;62992;52.052;8.550;2022-08-19T12:00:33;30.30;92.40
74513;DHT22;62992;52.052;8.550;2022-08-19T12:03:01;30.00;92.60
74513;DHT22;62992;52.052;8.550;2022-08-19T12:05:27;29.80;91.70
74513;DHT22;62992;52.052;8.550;2022-08-19T12:07:52;29.70;92.30
74513;DHT22;62992;52.052;8.550;2022-08-19T12:10:20;29.60;93.30
74513;DHT22;62992;52.052;8.550;2022-08-19T12:15:15;28.80;92.70
74513;DHT22;62992;52.052;8.550;2022-08-19T12:17:42;27.90;95.00
74513;DHT22;62992;52.052;8.550;2022-08-19T12:20:09;27.70;94.40
74513;DHT22;62992;52.052;8.550;2022-08-19T12:22:37;27.60;94.80
74513;DHT22;62992;52.052;8.550;2022-08-19T12:25:04;27.30;95.80
74513;DHT22;62992;52.052;8.550;2022-08-19T12:27:30;27.00;96.00
74513;DHT22;62992;52.052;8.550;2022-08-19T12:29:56;26.90;97.80
74513;DHT22;62992;52.052;8.550;2022-08-19T12:32:23;26.80;97.30
74513;DHT22;62992;52.052;8.550;2022-08-19T12:34:50;26.70;97.10
74513;DHT22;62992;52.052;8.550;2022-08-19T12:37:16;27.10;97.90
74513;DHT22;62992;52.052;8.550;2022-08-19T12:39:43;27.60;96.60
74513;DHT22;62992;52.052;8.550;2022-08-19T12:42:10;28.00;95.90
74513;DHT22;62992;52.052;8.550;2022-08-19T12:44:38;27.70;95.90
74513;DHT22;62992;52.052;8.550;2022-08-19T12:47:05;27.40;96.30
74513;DHT22;62992;52.052;8.550;2022-08-19T12:49:32;27.30;96.50
74513;DHT22;62992;52.052;8.550;2022-08-19T12:52:04;27.50;97.40
74513;DHT22;62992;52.052;8.550;2022-08-19T12:54:31;27.50;96.10
74513;DHT22;62992;52.052;8.550;2022-08-19T12:56:57;27.40;97.00
74513;DHT22;62992;52.052;8.550;2022-08-19T12:59:23;27.50;96.90
74513;DHT22;62992;52.052;8.550;2022-08-19T13:01:49;27.80;95.90
74513;DHT22;62992;52.052;8.550;2022-08-19T13:04:14;27.90;95.90
74513;DHT22;62992;52.052;8.550;2022-08-19T13:06:41;27.90;96.20
74513;DHT22;62992;52.052;8.550;2022-08-19T13:09:08;27.50;96.00
74513;DHT22;62992;52.052;8.550;2022-08-19T13:11:33;27.80;95.30
74513;DHT22;62992;52.052;8.550;2022-08-19T13:14:01;28.00;94.90
74513;DHT22;62992;52.052;8.550;2022-08-19T13:16:27;27.70;94.60
74513;DHT22;62992;52.052;8.550;2022-08-19T13:18:54;27.60;96.10
74513;DHT22;62992;52.052;8.550;2022-08-19T13:21:23;27.70;95.30
74513;DHT22;62992;52.052;8.550;2022-08-19T13:23:49;27.70;94.40
74513;DHT22;62992;52.052;8.550;2022-08-19T13:26:16;27.90;95.10
74513;DHT22;62992;52.052;8.550;2022-08-19T13:28:42;27.70;94.80
74513;DHT22;62992;52.052;8.550;2022-08-19T13:31:30;28.10;95.40
74513;DHT22;62992;52.052;8.550;2022-08-19T13:34:32;28.30;95.10
74513;DHT22;62992;52.052;8.550;2022-08-19T13:37:00;28.10;95.00
74513;DHT22;62992;52.052;8.550;2022-08-19T13:39:28;28.20;94.70
74513;DHT22;62992;52.052;8.550;2022-08-19T13:41:54;28.20;94.40
74513;DHT22;62992;52.052;8.550;2022-08-19T13:44:21;28.20;94.50
74513;DHT22;62992;52.052;8.550;2022-08-19T13:46:47;28.10;94.00
74513;DHT22;62992;52.052;8.550;2022-08-19T13:49:15;28.00;93.00
74513;DHT22;62992;52.052;8.550;2022-08-19T13:51:42;27.80;93.40
74513;DHT22;62992;52.052;8.550;2022-08-19T13:54:09;27.60;93.40
74513;DHT22;62992;52.052;8.550;2022-08-19T13:56:39;27.60;93.40
74513;DHT22;62992;52.052;8.550;2022-08-19T13:59:05;27.50;93.90
74513;DHT22;62992;52.052;8.550;2022-08-19T14:01:31;27.50;93.70
74513;DHT22;62992;52.052;8.550;2022-08-19T14:03:56;27.40;94.00
74513;DHT22;62992;52.052;8.550;2022-08-19T14:06:22;27.50;93.60
74513;DHT22;62992;52.052;8.550;2022-08-19T14:08:48;27.30;93.40
74513;DHT22;62992;52.052;8.550;2022-08-19T14:11:14;27.30;94.10
74513;DHT22;62992;52.052;8.550;2022-08-19T14:13:40;27.30;94.40
74513;DHT22;62992;52.052;8.550;2022-08-19T14:16:08;27.30;94.00
74513;DHT22;62992;52.052;8.550;2022-08-19T14:18:34;27.30;94.80
74513;DHT22;62992;52.052;8.550;2022-08-19T14:21:00;27.40;94.50
74513;DHT22;62992;52.052;8.550;2022-08-19T14:23:25;27.40;94.50
74513;DHT22;62992;52.052;8.550;2022-08-19T14:25:51;27.40;94.80
74513;DHT22;62992;52.052;8.550;2022-08-19T14:28:17;27.50;94.60
74513;DHT22;62992;52.052;8.550;2022-08-19T14:30:42;27.50;93.80
74513;DHT22;62992;52.052;8.550;2022-08-19T14:33:10;27.30;94.00
74513;DHT22;62992;52.052;8.550;2022-08-19T14:35:36;27.40;94.70
74513;DHT22;62992;52.052;8.550;2022-08-19T14:38:04;27.30;93.80
74513;DHT22;62992;52.052;8.550;2022-08-19T14:40:30;27.30;94.50
74513;DHT22;62992;52.052;8.550;2022-08-19T14:43:00;27.40;94.20
74513;DHT22;62992;52.052;8.550;2022-08-19T14:45:32;27.30;94.40
74513;DHT22;62992;52.052;8.550;2022-08-19T14:47:58;27.40;95.20
74513;DHT22;62992;52.052;8.550;2022-08-19T14:50:25;27.20;94.30
74513;DHT22;62992;52.052;8.550;2022-08-19T14:52:58;27.10;94.30
74513;DHT22;62992;52.052;8.550;2022-08-19T14:55:24;27.00;94.10
74513;DHT22;62992;52.052;8.550;2022-08-19T14:57:49;27.10;93.80
74513;DHT22;62992;52.052;8.550;2022-08-19T15:00:15;27.10;95.40
74513;DHT22;62992;52.052;8.550;2022-08-19T15:02:42;27.30;94.70
74513;DHT22;62992;52.052;8.550;2022-08-19T15:05:10;27.40;93.90
74513;DHT22;62992;52.052;8.550;2022-08-19T15:07:36;27.20;94.30
74513;DHT22;62992;52.052;8.550;2022-08-19T15:10:03;27.00;94.10
74513;DHT22;62992;52.052;8.550;2022-08-19T15:12:29;27.10;94.20
74513;DHT22;62992;52.052;8.550;2022-08-19T15:14:54;26.90;94.00
74513;DHT22;62992;52.052;8.550;2022-08-19T15:17:20;26.90;94.70
74513;DHT22;62992;52.052;8.550;2022-08-19T15:19:46;26.90;94.90
74513;DHT22;62992;52.052;8.550;2022-08-19T15:22:12;27.00;94.80
74513;DHT22;62992;52.052;8.550;2022-08-19T15:24:38;27.00;94.10
74513;DHT22;62992;52.052;8.550;2022-08-19T15:27:04;26.90;94.60
74513;DHT22;62992;52.052;8.550;2022-08-19T15:29:30;26.90;95.10
74513;DHT22;62992;52.052;8.550;2022-08-19T15:31:58;26.80;94.30
74513;DHT22;62992;52.052;8.550;2022-08-19T15:34:25;26.80;94.30
74513;DHT22;62992;52.052;8.550;2022-08-19T15:36:54;26.90;95.20
74513;DHT22;62992;52.052;8.550;2022-08-19T15:39:20;27.20;94.80
74513;DHT22;62992;52.052;8.550;2022-08-19T15:41:46;27.30;96.40
74513;DHT22;62992;52.052;8.550;2022-08-19T15:44:14;27.30;95.30
74513;DHT22;62992;52.052;8.550;2022-08-19T15:46:44;27.30;94.80
74513;DHT22;62992;52.052;8.550;2022-08-19T15:49:12;27.30;95.00
74513;DHT22;62992;52.052;8.550;2022-08-19T15:51:39;27.00;94.90
74513;DHT22;62992;52.052;8.550;2022-08-19T15:54:07;26.90;94.70